الصفحة الرئيسية
METAR-TAF:

METAR-TAF

مطار :

Tongatapu, تونجا

دائرة عرض: 21-14S, خط طول: 175-09W, ارتفاع: 38 متر

مراقبة الطقس الحالي

تاريخ ووقت الإصدار 1ساعة و 0 دقيقة قبل الساعة 15:00UTC
رياح هادئة
درجة الحرارة 21°درجة مئوية
الرطوبة 100%
ضغط 1013 hPa
الرؤية: 0400 متر
غيوم قليلة على ارتفاع 1600 قدم
ضباب

METAR: NFTF 221500Z 00000KT 0400 FG FEW016 21/21 Q1013

زمن: 05:00 (16:00 UTC)

توقعات

تاريخ ووقت الإصدار 4ساعات و 56 دقيقة قبل الساعة 11:04UTC
التوقعات صالحة من22 الساعة 12 UTC إلى 23 الساعة 12 UTC
ريح 3 عقدةمن اتجاهات متغيرة
الرؤية: 0300 متر
غيوم قليلة على ارتفاع 1700 قدم
ضباب
من 22 الساعة 1930 UTC
ريح 8 عقدة من الشمال/الشمال الشرقي
الرؤية 10 كم أو أكثر
غيوم قليلة على ارتفاع 1800 قدم
غيوم متفرقة على ارتفاع 10000 قدم

TAF: NFTF 221104Z 2212/2312 VRB03KT 0300 FG FEW017 FM221930 03008KT 9999 FEW018 SCT100

أرصاد الطقس والتوقعات من أكثر من 4000 مطار (تقارير الطقس للمطار METAR والتنبؤ بالطقس بالمطارTAF).

المحطات المتاحة هي النقط الصفراء والحمراء على الخريطة.

حرك المؤشر فوق النقطة لمعرفة اسم المحطة.

ثم انقر لمعرفة أرصاد وتوقعات الطقس.

لتغيير الخارطة: اضغط على الأزرار الخضراء مع رمز الصليب الأسود للتكبير. على الزر الأخضر مع شرطة للتصغير، أو على الأسهم الخضراء للخرائط المجاورة.


METAR-TAF: